createdAt,value
2023-03-01T00:01:49.825Z,54483.34
2023-03-01T00:04:18.690Z,54455.50
2023-03-01T00:06:47.703Z,54453.50
2023-03-01T00:09:16.901Z,54431.63
2023-03-01T00:11:46.017Z,54443.56
2023-03-01T00:14:17.332Z,54457.47
2023-03-01T00:16:47.986Z,54449.53
2023-03-01T00:19:18.320Z,54475.38
2023-03-01T00:21:47.336Z,54473.41
2023-03-01T00:24:16.108Z,54451.53
2023-03-01T00:26:44.988Z,54501.22
2023-03-01T00:29:13.396Z,54501.22
2023-03-01T00:31:43.262Z,54471.41
2023-03-01T00:34:11.826Z,54473.41
2023-03-01T00:36:40.958Z,54479.34
2023-03-01T00:39:14.496Z,54477.38
2023-03-01T00:41:43.145Z,54489.31
2023-03-01T00:44:12.053Z,54463.44
2023-03-01T00:46:40.911Z,54455.50
2023-03-01T00:49:10.831Z,54487.31
2023-03-01T00:51:40.466Z,54481.34
2023-03-01T00:54:11.451Z,54477.38
2023-03-01T00:56:40.327Z,54505.22
2023-03-01T00:59:08.889Z,54469.41
2023-03-01T01:01:37.473Z,54487.31
2023-03-01T01:04:08.296Z,54445.56
2023-03-01T01:06:39.614Z,54485.31
2023-03-01T01:09:09.395Z,54481.34
2023-03-01T01:11:38.477Z,54509.19
2023-03-01T01:14:06.964Z,54485.31
2023-03-01T01:16:35.454Z,54497.25
2023-03-01T01:19:04.065Z,54507.19
2023-03-01T01:21:33.093Z,54475.38
2023-03-01T01:24:04.746Z,54521.13
2023-03-01T01:26:36.135Z,54493.28
2023-03-01T01:29:06.832Z,54483.34
2023-03-01T01:31:36.073Z,54461.47
2023-03-01T01:34:06.359Z,54485.31
2023-03-01T01:36:35.766Z,54477.38
2023-03-01T01:39:05.924Z,54495.28
2023-03-01T01:41:34.581Z,54495.28
2023-03-01T01:44:22.167Z,54507.19
2023-03-01T01:46:54.895Z,54499.25
2023-03-01T01:49:32.009Z,54499.25
2023-03-01T01:52:09.545Z,54509.19
2023-03-01T01:54:46.971Z,54513.16
2023-03-01T01:57:20.514Z,54475.38
2023-03-01T01:59:54.812Z,54509.19
2023-03-01T02:02:23.690Z,54469.41
2023-03-01T02:04:59.719Z,54525.09
2023-03-01T02:07:28.817Z,54517.16
2023-03-01T02:09:59.217Z,54477.38
2023-03-01T02:12:28.305Z,54513.16
2023-03-01T02:14:57.093Z,54527.09
2023-03-01T02:17:26.009Z,54517.16
2023-03-01T02:20:09.844Z,54527.09
2023-03-01T02:22:41.338Z,54533.06
2023-03-01T02:25:19.537Z,54521.13
2023-03-01T02:27:57.003Z,54509.19
2023-03-01T02:30:27.917Z,54505.22
2023-03-01T02:33:04.079Z,54497.25
2023-03-01T02:35:36.059Z,54537.03
2023-03-01T02:38:06.147Z,54513.16
2023-03-01T02:40:36.852Z,54483.34
2023-03-01T02:43:07.737Z,54505.22
2023-03-01T02:45:38.139Z,54497.25
2023-03-01T02:48:07.154Z,54537.03
2023-03-01T02:50:55.689Z,54517.16
2023-03-01T02:53:30.984Z,54521.13
2023-03-01T02:56:00.280Z,54495.28
2023-03-01T02:58:29.042Z,54517.16
2023-03-01T03:01:02.012Z,54497.25
2023-03-01T03:03:30.693Z,54576.81
2023-03-01T03:05:59.697Z,54531.06
2023-03-01T03:08:28.242Z,54544.97
2023-03-01T03:10:57.184Z,54491.28
2023-03-01T03:13:29.531Z,54489.31
2023-03-01T03:15:59.594Z,54560.91
2023-03-01T03:18:28.173Z,54543.00
2023-03-01T03:20:56.792Z,54513.16
2023-03-01T03:23:25.448Z,54525.09
2023-03-01T03:25:53.894Z,54541.00
2023-03-01T03:28:22.490Z,54525.09
2023-03-01T03:30:51.029Z,54521.13
2023-03-01T03:33:20.846Z,54531.06
2023-03-01T03:35:51.512Z,54529.06
2023-03-01T03:38:23.231Z,54537.03
2023-03-01T03:40:53.661Z,54537.03
2023-03-01T03:43:24.369Z,54513.16
2023-03-01T03:45:53.513Z,54537.03
2023-03-01T03:48:23.911Z,54483.34
2023-03-01T03:50:53.936Z,54513.16
2023-03-01T03:53:24.341Z,54521.13
2023-03-01T03:55:53.016Z,54509.19
2023-03-01T03:58:23.168Z,54541.00
2023-03-01T04:00:54.467Z,54513.16
2023-03-01T04:03:25.513Z,54543.00
2023-03-01T04:05:54.873Z,54554.94
2023-03-01T04:08:25.213Z,54533.06
2023-03-01T04:10:58.579Z,54552.94
2023-03-01T04:13:27.098Z,54541.00
2023-03-01T04:15:56.820Z,54562.88
2023-03-01T04:18:27.048Z,54548.97
2023-03-01T04:20:56.504Z,54533.06
2023-03-01T04:23:25.895Z,54539.03
2023-03-01T04:25:56.417Z,54521.13
2023-03-01T04:28:26.317Z,54544.97
2023-03-01T04:30:55.570Z,54525.09
2023-03-01T04:33:26.866Z,54546.97
2023-03-01T04:35:55.848Z,54556.91
2023-03-01T04:38:24.570Z,54596.69
2023-03-01T04:40:52.915Z,54541.00
2023-03-01T04:43:21.231Z,54521.13
2023-03-01T04:45:49.588Z,54556.91
2023-03-01T04:48:18.555Z,54505.22
2023-03-01T04:50:48.371Z,54546.97
2023-03-01T04:53:16.763Z,54535.03
2023-03-01T04:55:45.140Z,54548.97
2023-03-01T04:58:13.630Z,54525.09
2023-03-01T05:00:42.081Z,54525.09
2023-03-01T05:03:13.574Z,54562.88
2023-03-01T05:05:45.407Z,54537.03
2023-03-01T05:08:18.505Z,54521.13
2023-03-01T05:10:48.429Z,54533.06
2023-03-01T05:13:22.035Z,54511.19
2023-03-01T05:15:56.199Z,54544.97
2023-03-01T05:18:26.998Z,54539.03
2023-03-01T05:20:57.274Z,54497.25
2023-03-01T05:23:27.328Z,54519.13
2023-03-01T05:25:56.087Z,54535.03
2023-03-01T05:28:24.392Z,54529.06
2023-03-01T05:30:52.876Z,54574.81
2023-03-01T05:33:23.047Z,54568.84
2023-03-01T05:35:53.012Z,54574.81
2023-03-01T05:38:22.266Z,54546.97
2023-03-01T05:40:52.074Z,54558.91
2023-03-01T05:43:20.697Z,54550.94
2023-03-01T05:45:49.082Z,54560.91
2023-03-01T05:48:17.634Z,54529.06
2023-03-01T05:50:46.841Z,54548.97
2023-03-01T05:53:20.476Z,54544.97
2023-03-01T05:55:50.821Z,54548.97
2023-03-01T05:58:22.584Z,54570.84
2023-03-01T06:00:54.081Z,54548.97
2023-03-01T06:03:23.649Z,54533.06
2023-03-01T06:05:52.156Z,54533.06
2023-03-01T06:08:21.328Z,54548.97
2023-03-01T06:10:49.936Z,54564.88
2023-03-01T06:13:18.373Z,54541.00
2023-03-01T06:15:48.189Z,54576.81
2023-03-01T06:18:16.668Z,54564.88
2023-03-01T06:20:45.054Z,54570.84
2023-03-01T06:23:13.460Z,54552.94
2023-03-01T06:25:41.907Z,54537.03
2023-03-01T06:28:10.461Z,54576.81
2023-03-01T06:30:39.032Z,54556.91
2023-03-01T06:33:08.867Z,54566.84
2023-03-01T06:35:37.320Z,54541.00
2023-03-01T06:38:08.456Z,54544.97
2023-03-01T06:40:37.481Z,54556.91
2023-03-01T06:43:06.946Z,54562.88
2023-03-01T06:45:35.902Z,54564.88
2023-03-01T06:48:06.125Z,54568.84
2023-03-01T06:50:36.493Z,54576.81
2023-03-01T06:53:05.281Z,54539.03
2023-03-01T06:55:34.602Z,54592.72
2023-03-01T06:58:05.087Z,54546.97
2023-03-01T07:00:34.104Z,54594.69
2023-03-01T07:03:03.595Z,54598.69
2023-03-01T07:05:32.935Z,54588.75
2023-03-01T07:08:02.882Z,54600.66
2023-03-01T07:10:31.347Z,54596.69
2023-03-01T07:13:00.457Z,54566.84
2023-03-01T07:15:29.702Z,54624.53
2023-03-01T07:17:58.834Z,54604.66
2023-03-01T07:20:27.714Z,54584.75
2023-03-01T07:22:57.591Z,54612.59
2023-03-01T07:25:27.486Z,54620.56
2023-03-01T07:27:56.393Z,54604.66
2023-03-01T07:30:27.093Z,54600.66
2023-03-01T07:32:55.932Z,54636.47
2023-03-01T07:35:25.396Z,54630.50
2023-03-01T07:37:54.220Z,54620.56
2023-03-01T07:40:22.562Z,54568.84
2023-03-01T07:42:57.908Z,54588.75
2023-03-01T07:45:29.113Z,54568.84
2023-03-01T07:47:58.285Z,54570.84
2023-03-01T07:50:26.727Z,54541.00
2023-03-01T07:52:55.125Z,54592.72
2023-03-01T07:55:23.586Z,54594.69
2023-03-01T07:57:53.483Z,54580.78
2023-03-01T08:00:22.248Z,54578.78
2023-03-01T08:02:50.763Z,54572.81
2023-03-01T08:05:19.273Z,54556.91
2023-03-01T08:07:47.741Z,54544.97
2023-03-01T08:10:16.361Z,54537.03
2023-03-01T08:12:44.812Z,54519.13
2023-03-01T08:15:14.979Z,54521.13
2023-03-01T08:17:43.277Z,54499.25
2023-03-01T08:20:13.750Z,54517.16
2023-03-01T08:22:42.352Z,54511.19
2023-03-01T08:25:14.007Z,54463.44
2023-03-01T08:27:42.359Z,54495.28
2023-03-01T08:30:12.067Z,54447.53
2023-03-01T08:32:42.117Z,54449.53
2023-03-01T08:35:10.966Z,54457.47
2023-03-01T08:37:39.485Z,54441.56
2023-03-01T08:40:11.016Z,54425.66
2023-03-01T08:42:39.581Z,54423.69
2023-03-01T08:45:09.324Z,54461.47
2023-03-01T08:47:38.204Z,54429.66
2023-03-01T08:50:09.696Z,54431.63
2023-03-01T08:52:38.209Z,54431.63
2023-03-01T08:55:07.817Z,54413.72
2023-03-01T08:57:36.384Z,54399.81
2023-03-01T09:00:09.492Z,54395.84
2023-03-01T09:02:38.228Z,54368.00
2023-03-01T09:05:09.033Z,54373.97
2023-03-01T09:07:37.423Z,54371.97
2023-03-01T09:10:06.638Z,54318.28
2023-03-01T09:12:35.264Z,54330.22
2023-03-01T09:15:03.786Z,54314.31
2023-03-01T09:17:32.330Z,54302.38
2023-03-01T09:20:00.833Z,54350.09
2023-03-01T09:22:30.798Z,54306.34
2023-03-01T09:25:00.307Z,54314.31
2023-03-01T09:27:28.900Z,54274.53
2023-03-01T09:29:58.358Z,54282.50
2023-03-01T09:32:27.205Z,54254.66
2023-03-01T09:35:06.076Z,54282.50
2023-03-01T09:37:38.462Z,54266.59
2023-03-01T09:40:16.582Z,54222.84
2023-03-01T09:42:54.893Z,54254.66
2023-03-01T09:45:30.050Z,54242.72
2023-03-01T09:47:59.298Z,54187.03
2023-03-01T09:50:32.661Z,54171.13
2023-03-01T09:53:05.869Z,54181.06
2023-03-01T09:55:39.687Z,54191.03
2023-03-01T09:58:29.625Z,54163.19
2023-03-01T10:01:02.469Z,54139.31
2023-03-01T10:03:38.228Z,54195.00
2023-03-01T10:06:27.332Z,54169.16
2023-03-01T10:09:06.659Z,54153.25
2023-03-01T10:11:39.340Z,54091.59
2023-03-01T10:14:23.989Z,54125.41
2023-03-01T10:16:59.127Z,54119.44
2023-03-01T10:19:34.724Z,54139.31
2023-03-01T10:22:13.193Z,54113.47
2023-03-01T10:24:43.862Z,54123.41
2023-03-01T10:27:19.096Z,54091.59
2023-03-01T10:29:54.783Z,54097.56
2023-03-01T10:32:25.052Z,54099.56
2023-03-01T10:34:53.943Z,54083.66
2023-03-01T10:37:25.490Z,54083.66
2023-03-01T10:40:00.282Z,54035.91
2023-03-01T10:42:31.414Z,54057.78
2023-03-01T10:45:00.416Z,54053.81
2023-03-01T10:47:30.397Z,54043.88
2023-03-01T10:50:01.653Z,54049.84
2023-03-01T10:52:36.486Z,54031.94
2023-03-01T10:55:27.045Z,54043.88
2023-03-01T10:58:10.762Z,54051.81
2023-03-01T11:00:50.442Z,54039.91
2023-03-01T11:03:23.219Z,54051.81
2023-03-01T11:06:07.519Z,54029.97
2023-03-01T11:08:42.967Z,54059.78
2023-03-01T11:11:23.824Z,54020.00
2023-03-01T11:13:56.059Z,54010.06
2023-03-01T11:16:34.749Z,54014.06
2023-03-01T11:19:16.675Z,53968.31
2023-03-01T11:21:59.314Z,53996.16
2023-03-01T11:24:35.463Z,53976.28
2023-03-01T11:27:10.675Z,53984.22
2023-03-01T11:29:48.476Z,53982.25
2023-03-01T11:32:17.917Z,53972.28
2023-03-01T11:34:51.457Z,53958.38
2023-03-01T11:37:31.472Z,53984.22
2023-03-01T11:40:13.694Z,53948.44
2023-03-01T11:42:52.806Z,53944.47
2023-03-01T11:45:25.440Z,53952.41
2023-03-01T11:48:16.189Z,53934.50
2023-03-01T11:50:48.490Z,53956.38
2023-03-01T11:53:35.465Z,53976.28
2023-03-01T11:56:12.269Z,53914.63
2023-03-01T11:59:05.343Z,53966.34
2023-03-01T12:01:49.642Z,53932.53
2023-03-01T12:04:39.316Z,53930.53
2023-03-01T12:07:17.154Z,53888.78
2023-03-01T12:10:01.734Z,53914.63
2023-03-01T12:12:39.940Z,53912.66
2023-03-01T12:15:35.220Z,53896.75
2023-03-01T12:18:30.636Z,53914.63
2023-03-01T12:21:08.185Z,53896.75
2023-03-01T12:24:06.215Z,53886.78
2023-03-01T12:26:38.329Z,53902.69
2023-03-01T12:29:29.247Z,53918.59
2023-03-01T12:32:22.319Z,53868.91
2023-03-01T12:35:08.619Z,53876.84
2023-03-01T12:37:49.785Z,53888.78
2023-03-01T12:40:33.821Z,53878.84
2023-03-01T12:43:18.383Z,53862.94
2023-03-01T12:46:00.007Z,53876.84
2023-03-01T12:48:41.269Z,53874.88
2023-03-01T12:51:13.107Z,53845.03
2023-03-01T12:53:46.261Z,53862.94
2023-03-01T12:56:19.807Z,53854.97
2023-03-01T12:58:59.933Z,53851.00
2023-03-01T13:01:39.121Z,53787.38
2023-03-01T13:04:20.945Z,53817.22
2023-03-01T13:07:00.623Z,53817.22
2023-03-01T13:09:37.328Z,53777.44
2023-03-01T13:12:15.856Z,53765.50
2023-03-01T13:14:48.796Z,53749.59
2023-03-01T13:17:35.360Z,53741.66
2023-03-01T13:20:14.522Z,53717.78
2023-03-01T13:22:54.331Z,53705.88
2023-03-01T13:25:31.906Z,53709.84
2023-03-01T13:28:42.948Z,53642.25
2023-03-01T13:31:14.890Z,53648.22
2023-03-01T13:33:47.699Z,53646.22
2023-03-01T13:36:49.410Z,53602.47
2023-03-01T13:39:36.718Z,53594.53
2023-03-01T13:42:05.827Z,53614.41
2023-03-01T13:44:37.195Z,53610.44
2023-03-01T13:47:18.548Z,53624.34
2023-03-01T13:49:51.690Z,53584.59
2023-03-01T13:52:37.052Z,53584.59
2023-03-01T13:55:08.185Z,53590.56
2023-03-01T13:57:40.257Z,53596.53
2023-03-01T14:00:10.235Z,53572.66
2023-03-01T14:02:38.715Z,53600.50
2023-03-01T14:05:12.959Z,53628.31
2023-03-01T14:07:43.322Z,53554.78
2023-03-01T14:10:15.080Z,53592.53
2023-03-01T14:12:50.684Z,53632.31
2023-03-01T14:15:24.963Z,53578.63
2023-03-01T14:18:02.103Z,53566.69
2023-03-01T14:20:33.441Z,53610.44
2023-03-01T14:23:14.026Z,53634.28
2023-03-01T14:25:50.316Z,53622.38
2023-03-01T14:28:21.902Z,53620.38
2023-03-01T14:30:52.416Z,53638.28
2023-03-01T14:33:24.713Z,53664.13
2023-03-01T14:36:01.601Z,53634.28
2023-03-01T14:38:37.380Z,53626.34
2023-03-01T14:41:09.723Z,53662.13
2023-03-01T14:43:39.930Z,53676.03
2023-03-01T14:46:08.557Z,53713.81
2023-03-01T14:48:36.987Z,53687.97
2023-03-01T14:51:08.246Z,53699.91
2023-03-01T14:53:50.325Z,53699.91
2023-03-01T14:56:20.505Z,53691.94
2023-03-01T14:58:53.050Z,53713.81
2023-03-01T15:01:22.390Z,53733.69
2023-03-01T15:03:52.327Z,53697.91
2023-03-01T15:06:22.970Z,53749.59
2023-03-01T15:08:56.168Z,53741.66
2023-03-01T15:11:29.010Z,53751.59
2023-03-01T15:13:57.603Z,53745.63
2023-03-01T15:16:28.875Z,53733.69
2023-03-01T15:19:01.461Z,53737.69
2023-03-01T15:21:33.168Z,53743.66
2023-03-01T15:24:07.182Z,53757.56
2023-03-01T15:26:42.663Z,53729.72
2023-03-01T15:29:18.938Z,53767.50
2023-03-01T15:31:57.788Z,53757.56
2023-03-01T15:34:28.084Z,53749.59
2023-03-01T15:36:59.151Z,53779.44
2023-03-01T15:39:57.143Z,53757.56
2023-03-01T15:42:39.931Z,53759.56
2023-03-01T15:45:12.729Z,53769.50
2023-03-01T15:47:42.740Z,53771.47
2023-03-01T15:50:20.022Z,53779.44
2023-03-01T15:52:48.892Z,53783.41
2023-03-01T15:55:21.486Z,53757.56
2023-03-01T15:57:51.113Z,53783.41
2023-03-01T16:00:20.828Z,53787.38
2023-03-01T16:02:49.376Z,53789.38
2023-03-01T16:05:24.213Z,53805.28
2023-03-01T16:07:53.561Z,53791.34
2023-03-01T16:10:24.154Z,53789.38
2023-03-01T16:12:53.700Z,53797.31
2023-03-01T16:15:24.031Z,53767.50
2023-03-01T16:17:53.255Z,53785.41
2023-03-01T16:20:30.385Z,53807.25
2023-03-01T16:23:01.531Z,53797.31
2023-03-01T16:25:33.384Z,53777.44
2023-03-01T16:28:05.889Z,53793.34
2023-03-01T16:30:37.087Z,53801.31
2023-03-01T16:33:24.390Z,53823.16
2023-03-01T16:35:54.805Z,53801.31
2023-03-01T16:38:23.279Z,53837.09
2023-03-01T16:40:54.009Z,53803.28
2023-03-01T16:43:22.707Z,53797.31
2023-03-01T16:45:51.157Z,53837.09
2023-03-01T16:48:19.781Z,53845.03
2023-03-01T16:50:48.147Z,53843.06
2023-03-01T16:53:16.501Z,53853.00
2023-03-01T16:55:46.642Z,53860.94
2023-03-01T16:58:17.728Z,53831.13
2023-03-01T17:00:46.326Z,53853.00
2023-03-01T17:03:15.222Z,53882.81
2023-03-01T17:05:43.652Z,53858.97
2023-03-01T17:08:12.237Z,53892.75
2023-03-01T17:10:42.950Z,53862.94
2023-03-01T17:13:12.302Z,53908.66
2023-03-01T17:15:43.868Z,53896.75
2023-03-01T17:18:12.346Z,53884.81
2023-03-01T17:20:40.789Z,53918.59
2023-03-01T17:23:09.183Z,53920.59
2023-03-01T17:25:37.567Z,53888.78
2023-03-01T17:28:06.214Z,53916.63
2023-03-01T17:30:34.716Z,53918.59
2023-03-01T17:33:04.828Z,53944.47
2023-03-01T17:35:38.359Z,53954.41
2023-03-01T17:38:07.751Z,53936.50
2023-03-01T17:40:36.988Z,53964.34
2023-03-01T17:43:05.350Z,53958.38
2023-03-01T17:45:33.774Z,53984.22
2023-03-01T17:48:02.228Z,53916.63
2023-03-01T17:50:38.874Z,53988.19
2023-03-01T17:53:09.978Z,53952.41
2023-03-01T17:55:39.244Z,53988.19
2023-03-01T17:58:08.853Z,53976.28
2023-03-01T18:00:37.815Z,53972.28
2023-03-01T18:03:07.016Z,53960.38
2023-03-01T18:05:38.141Z,54014.06
2023-03-01T18:08:06.946Z,53972.28
2023-03-01T18:10:37.621Z,53982.25
2023-03-01T18:13:06.683Z,53992.19
2023-03-01T18:15:35.258Z,54020.00
2023-03-01T18:18:04.468Z,54002.13
2023-03-01T18:20:34.447Z,54014.06
2023-03-01T18:23:04.241Z,53970.31
2023-03-01T18:25:32.796Z,53990.19
2023-03-01T18:28:01.543Z,54016.03
2023-03-01T18:30:29.935Z,53990.19
2023-03-01T18:32:58.399Z,54004.09
2023-03-01T18:35:26.804Z,54014.06
2023-03-01T18:37:55.189Z,53992.19
2023-03-01T18:40:24.964Z,53990.19
2023-03-01T18:42:53.755Z,54004.09
2023-03-01T18:45:22.173Z,54024.00
2023-03-01T18:47:51.015Z,54043.88
2023-03-01T18:50:19.987Z,54008.09
2023-03-01T18:52:48.622Z,53996.16
2023-03-01T18:55:17.523Z,54029.97
2023-03-01T18:57:47.418Z,54025.97
2023-03-01T19:00:18.693Z,54012.06
2023-03-01T19:02:47.619Z,54024.00
2023-03-01T19:05:17.336Z,54057.78
2023-03-01T19:07:45.989Z,54071.72
2023-03-01T19:10:14.361Z,54065.75
2023-03-01T19:12:42.920Z,54020.00
2023-03-01T19:15:13.718Z,54051.81
2023-03-01T19:17:42.082Z,54043.88
2023-03-01T19:20:12.219Z,54031.94
2023-03-01T19:22:40.739Z,54069.72
2023-03-01T19:25:10.160Z,54059.78
2023-03-01T19:27:39.193Z,54045.88
2023-03-01T19:30:09.395Z,54051.81
2023-03-01T19:32:39.339Z,54055.81
2023-03-01T19:35:08.782Z,54024.00
2023-03-01T19:37:40.089Z,54049.84
2023-03-01T19:40:10.705Z,54075.69
2023-03-01T19:42:41.505Z,54079.66
2023-03-01T19:45:11.440Z,54057.78
2023-03-01T19:47:41.211Z,54065.75
2023-03-01T19:50:13.871Z,54045.88
2023-03-01T19:52:42.262Z,54059.78
2023-03-01T19:55:11.630Z,54051.81
2023-03-01T19:57:40.072Z,54057.78
2023-03-01T20:00:09.910Z,54063.75
2023-03-01T20:02:42.679Z,54087.63
2023-03-01T20:05:11.567Z,54057.78
2023-03-01T20:07:40.231Z,54059.78
2023-03-01T20:10:09.937Z,54033.94
2023-03-01T20:12:38.418Z,54075.69
2023-03-01T20:15:07.972Z,54043.88
2023-03-01T20:17:36.337Z,54035.91
2023-03-01T20:20:07.122Z,54071.72
2023-03-01T20:22:36.077Z,54059.78
2023-03-01T20:25:06.472Z,54073.69
2023-03-01T20:27:35.264Z,54043.88
2023-03-01T20:30:03.748Z,54091.59
2023-03-01T20:32:32.924Z,54091.59
2023-03-01T20:35:01.390Z,54079.66
2023-03-01T20:37:31.602Z,54071.72
2023-03-01T20:40:00.224Z,54055.81
2023-03-01T20:42:28.901Z,54099.56
2023-03-01T20:44:57.516Z,54103.53
2023-03-01T20:47:26.333Z,54089.59
2023-03-01T20:49:59.093Z,54093.59
2023-03-01T20:52:30.654Z,54063.75
2023-03-01T20:55:06.396Z,54103.53
2023-03-01T20:57:35.587Z,54129.38
2023-03-01T21:00:05.493Z,54059.78
2023-03-01T21:02:34.193Z,54093.59
2023-03-01T21:05:02.725Z,54101.53
2023-03-01T21:07:31.488Z,54091.59
2023-03-01T21:10:00.006Z,54087.63
2023-03-01T21:12:29.840Z,54115.47
2023-03-01T21:14:58.318Z,54101.53
2023-03-01T21:17:26.892Z,54107.50
2023-03-01T21:19:55.374Z,54105.50
2023-03-01T21:22:23.933Z,54067.75
2023-03-01T21:24:53.047Z,54083.66
2023-03-01T21:27:22.091Z,54099.56
2023-03-01T21:29:52.283Z,54079.66
2023-03-01T21:32:21.049Z,54103.53
2023-03-01T21:34:49.780Z,54091.59
2023-03-01T21:37:19.524Z,54091.59
2023-03-01T21:39:48.013Z,54047.84
2023-03-01T21:42:18.791Z,54075.69
2023-03-01T21:44:49.900Z,54079.66
2023-03-01T21:47:20.436Z,54107.50
2023-03-01T21:49:49.683Z,54121.41
2023-03-01T21:52:18.184Z,54127.38
2023-03-01T21:54:47.040Z,54107.50
2023-03-01T21:57:15.907Z,54097.56
2023-03-01T21:59:44.928Z,54107.50
2023-03-01T22:02:14.580Z,54141.31
2023-03-01T22:04:45.505Z,54099.56
2023-03-01T22:07:16.218Z,54123.41
2023-03-01T22:09:44.777Z,54129.38
2023-03-01T22:12:15.745Z,54111.47
2023-03-01T22:14:47.226Z,54127.38
2023-03-01T22:17:15.590Z,54163.19
2023-03-01T22:19:46.494Z,54127.38
2023-03-01T22:22:15.013Z,54137.34
2023-03-01T22:24:43.425Z,54131.38
2023-03-01T22:27:11.875Z,54107.50
2023-03-01T22:29:40.330Z,54139.31
2023-03-01T22:32:10.288Z,54127.38
2023-03-01T22:34:38.775Z,54131.38
2023-03-01T22:37:08.856Z,54143.28
2023-03-01T22:39:37.514Z,54119.44
2023-03-01T22:42:06.617Z,54111.47
2023-03-01T22:44:35.209Z,54175.13
2023-03-01T22:47:03.620Z,54143.28
2023-03-01T22:49:32.126Z,54167.16
2023-03-01T22:52:01.328Z,54147.28
2023-03-01T22:54:31.236Z,54165.16
2023-03-01T22:56:59.645Z,54155.22
2023-03-01T22:59:28.176Z,54147.28
2023-03-01T23:01:57.301Z,54167.16
2023-03-01T23:04:25.841Z,54153.25
2023-03-01T23:06:55.063Z,54191.03
2023-03-01T23:09:30.173Z,54149.25
2023-03-01T23:12:01.239Z,54155.22
2023-03-01T23:14:33.085Z,54173.13
2023-03-01T23:17:01.937Z,54155.22
2023-03-01T23:19:31.122Z,54195.00
2023-03-01T23:21:59.515Z,54181.06
2023-03-01T23:24:31.866Z,54149.25
2023-03-01T23:27:03.421Z,54155.22
2023-03-01T23:29:32.275Z,54187.03
2023-03-01T23:32:01.413Z,54183.06
2023-03-01T23:34:30.070Z,54181.06
2023-03-01T23:36:58.825Z,54163.19
2023-03-01T23:39:27.572Z,54171.13
2023-03-01T23:41:55.946Z,54195.00
2023-03-01T23:44:25.838Z,54171.13
2023-03-01T23:46:54.370Z,54187.03
2023-03-01T23:49:24.922Z,54163.19
2023-03-01T23:51:53.529Z,54179.09
2023-03-01T23:54:23.835Z,54151.25
2023-03-01T23:56:52.509Z,54181.06
2023-03-01T23:59:22.186Z,54226.81
